Time;durP1;ratioP1;P1;durP2;ratioP2;P2;SDS_P1;SDS_P2;PMS_P1;PMS_P2;Temp;Humidity;BMP_temperature;BMP_pressure;BME280_temperature;BME280_humidity;BME280_pressure;Samples;Min_cycle;Max_cycle;Signal;HPM_P1;HPM_P2
2022/01/14 00:02:26;;;;;;;51.45;15.43;;;4.80;99.90;;;;;;5040576;28;20025;-80
2022/01/14 00:04:52;;;;;;;67.20;15.55;;;4.80;99.90;;;;;;5048899;28;20030;-80
2022/01/14 00:07:19;;;;;;;39.25;14.63;;;4.70;99.90;;;;;;5052808;28;20492;-80
2022/01/14 00:09:46;;;;;;;32.20;14.70;;;4.70;99.90;;;;;;5049627;28;20432;-80
2022/01/14 00:12:17;;;;;;;49.08;15.45;;;4.70;99.90;;;;;;5033154;28;20381;-80
2022/01/14 00:14:57;;;;;;;58.28;16.38;;;4.70;99.90;;;;;;5067148;28;20477;-80
2022/01/14 00:17:23;;;;;;;42.42;15.02;;;4.70;99.90;;;;;;5047563;28;20068;-80
2022/01/14 00:19:49;;;;;;;33.92;14.85;;;4.70;99.90;;;;;;5044456;28;20124;-80
2022/01/14 00:22:17;;;;;;;36.65;14.32;;;4.80;99.90;;;;;;5053691;28;20512;-80
2022/01/14 00:33:08;;;;;;;47.17;14.82;;;4.80;99.90;;;;;;5037959;28;20067;-80
2022/01/14 00:35:36;;;;;;;36.38;15.27;;;4.80;99.90;;;;;;5052030;28;20469;-79
2022/01/14 00:38:03;;;;;;;37.60;16.02;;;4.80;99.90;;;;;;5032587;28;20474;-80
2022/01/14 00:40:31;;;;;;;79.90;20.25;;;4.80;99.90;;;;;;5034116;28;20027;-80
2022/01/14 00:43:04;;;;;;;27.20;13.40;;;4.80;99.90;;;;;;5047962;28;20029;-80
2022/01/14 00:45:31;;;;;;;40.20;16.10;;;4.90;99.90;;;;;;5049342;28;20488;-80
2022/01/14 00:47:58;;;;;;;37.67;15.20;;;5.00;99.90;;;;;;5039727;28;20056;-80
2022/01/14 00:50:24;;;;;;;38.33;15.60;;;5.00;99.90;;;;;;5056667;28;20017;-81
2022/01/14 00:52:49;;;;;;;54.22;17.98;;;4.90;99.90;;;;;;5036993;28;20059;-80
2022/01/14 00:55:25;;;;;;;61.50;18.48;;;5.00;99.90;;;;;;5052385;28;20436;-80
2022/01/14 01:00:33;;;;;;;48.53;17.48;;;4.90;99.90;;;;;;5038584;28;20041;-81
2022/01/14 01:03:01;;;;;;;64.70;18.40;;;4.90;99.90;;;;;;5041740;28;20025;-81
2022/01/14 01:05:26;;;;;;;212.07;28.35;;;4.90;99.90;;;;;;5052460;28;20119;-81
2022/01/14 01:08:10;;;;;;;56.08;18.13;;;4.90;99.90;;;;;;5042200;28;20458;-81
2022/01/14 01:10:49;;;;;;;47.85;18.10;;;4.90;99.90;;;;;;5057713;28;20017;-79
2022/01/14 01:13:27;;;;;;;54.88;18.65;;;5.00;99.90;;;;;;5038592;28;20025;-79
2022/01/14 01:15:56;;;;;;;52.28;18.30;;;5.10;99.90;;;;;;5050318;28;20025;-80
2022/01/14 01:18:23;;;;;;;51.63;18.30;;;5.10;99.90;;;;;;5040702;28;20028;-80
2022/01/14 01:20:52;;;;;;;63.40;19.10;;;5.00;99.90;;;;;;5040147;28;20388;-80
2022/01/14 01:23:20;;;;;;;84.25;22.23;;;5.00;99.90;;;;;;5047916;28;20104;-80
2022/01/14 01:25:56;;;;;;;55.63;18.98;;;4.90;99.90;;;;;;5033327;28;20041;-80
2022/01/14 01:28:22;;;;;;;66.43;18.75;;;4.80;99.90;;;;;;5038390;28;20024;-80
2022/01/14 01:31:03;;;;;;;134.98;25.00;;;4.80;99.90;;;;;;5042430;28;20025;-80
2022/01/14 01:33:35;;;;;;;53.10;20.23;;;4.70;99.90;;;;;;5048841;28;20492;-80
2022/01/14 01:36:01;;;;;;;56.28;20.10;;;4.70;99.90;;;;;;5050192;28;20051;-78
2022/01/14 01:38:30;;;;;;;78.45;20.20;;;4.70;99.90;;;;;;5052021;28;20474;-79
2022/01/14 01:41:04;;;;;;;;;;;4.80;99.90;;;;;;5053374;28;20033;-77
2022/01/14 01:43:31;;;;;;;88.10;20.02;;;4.80;99.90;;;;;;5052951;28;19931;-78
2022/01/14 01:45:58;;;;;;;77.80;20.65;;;4.80;99.90;;;;;;5034148;28;20037;-78
2022/01/14 01:48:26;;;;;;;150.00;26.52;;;4.90;99.90;;;;;;5052165;28;20028;-79
2022/01/14 01:50:57;;;;;;;56.15;20.52;;;4.90;99.90;;;;;;5058324;28;20439;-79
2022/01/14 01:53:27;;;;;;;103.17;21.37;;;4.90;99.90;;;;;;5035709;28;20474;-78
2022/01/14 01:55:53;;;;;;;71.70;18.95;;;4.80;99.90;;;;;;5051101;28;20029;-78
2022/01/14 01:58:26;;;;;;;99.22;20.25;;;4.90;99.90;;;;;;5034704;28;20040;-79
2022/01/14 02:00:57;;;;;;;86.55;20.95;;;4.90;99.90;;;;;;5033067;28;20493;-79
2022/01/14 02:03:24;;;;;;;131.75;21.80;;;4.80;99.90;;;;;;5069481;28;20036;-78
2022/01/14 02:05:53;;;;;;;44.55;16.52;;;4.80;99.90;;;;;;5029252;28;20037;-79
2022/01/14 02:08:20;;;;;;;52.40;16.63;;;4.80;99.90;;;;;;5050239;28;20354;-78
2022/01/14 02:10:48;;;;;;;39.53;16.27;;;4.80;99.90;;;;;;5044074;28;20116;-77
2022/01/14 02:13:16;;;;;;;48.45;15.07;;;4.80;99.90;;;;;;5056180;28;20113;-78
2022/01/14 02:16:01;;;;;;;93.57;18.30;;;4.80;99.90;;;;;;5041245;28;20386;-77
2022/01/14 02:18:59;;;;;;;62.25;17.92;;;4.80;99.90;;;;;;5047653;28;20017;-78
2022/01/14 02:26:51;;;;;;;46.10;15.50;;;4.80;99.90;;;;;;5038322;28;20033;-78
2022/01/14 02:29:20;;;;;;;34.25;14.77;;;4.80;99.90;;;;;;5060945;28;20428;-78
2022/01/14 02:31:46;;;;;;;38.90;14.88;;;4.90;99.90;;;;;;5054510;28;20418;-78
2022/01/14 02:34:15;;;;;;;38.67;15.02;;;4.90;99.90;;;;;;5052991;28;20048;-78
2022/01/14 02:36:44;;;;;;;52.10;16.13;;;4.90;99.90;;;;;;5058021;28;20867;-79
2022/01/14 02:39:12;;;;;;;40.75;15.13;;;4.80;99.90;;;;;;5049214;28;20033;-79
2022/01/14 02:41:41;;;;;;;57.13;16.65;;;4.90;99.90;;;;;;5047782;28;20029;-79
2022/01/14 02:44:19;;;;;;;66.20;16.17;;;4.80;99.90;;;;;;5043454;28;20033;-79
2022/01/14 02:46:53;;;;;;;41.85;14.27;;;4.70;99.90;;;;;;5066853;28;20434;-79
2022/01/14 02:49:28;;;;;;;47.58;14.35;;;4.70;99.90;;;;;;5046428;28;20541;-78
2022/01/14 02:51:55;;;;;;;76.07;15.02;;;4.70;99.90;;;;;;5037669;28;20492;-78
2022/01/14 02:54:23;;;;;;;74.65;16.77;;;4.70;99.90;;;;;;5054067;28;20045;-79
2022/01/14 02:56:53;;;;;;;38.85;14.05;;;4.70;99.90;;;;;;5046394;28;20065;-78
2022/01/14 02:59:21;;;;;;;120.80;21.90;;;4.60;99.90;;;;;;5051308;28;20025;-78
2022/01/14 03:01:49;;;;;;;32.60;14.25;;;4.50;99.90;;;;;;5036124;28;20493;-78
2022/01/14 03:04:17;;;;;;;38.40;13.93;;;4.60;99.90;;;;;;5052051;28;20025;-78
2022/01/14 03:06:46;;;;;;;123.75;20.38;;;4.50;99.90;;;;;;5047321;28;20035;-78
2022/01/14 03:09:12;;;;;;;50.85;16.33;;;4.60;99.90;;;;;;5053359;28;20028;-78
2022/01/14 03:11:51;;;;;;;51.15;16.90;;;4.60;99.90;;;;;;5043348;28;20032;-78
2022/01/14 03:14:22;;;;;;;92.47;19.10;;;4.70;99.90;;;;;;5051240;28;20022;-78
2022/01/14 03:16:58;;;;;;;61.38;15.40;;;4.60;99.90;;;;;;5040861;28;20466;-78
2022/01/14 03:19:26;;;;;;;80.85;18.55;;;4.60;99.90;;;;;;5034746;28;20025;-78
2022/01/14 03:22:06;;;;;;;47.15;15.57;;;4.50;99.90;;;;;;5047592;28;20419;-78
2022/01/14 03:27:03;;;;;;;57.97;17.13;;;4.40;99.90;;;;;;5047616;28;20049;-78
2022/01/14 03:29:30;;;;;;;57.63;16.10;;;4.40;99.90;;;;;;5047678;28;20013;-78
2022/01/14 03:31:58;;;;;;;65.82;16.38;;;4.40;99.90;;;;;;5047667;28;20046;-78
2022/01/14 03:34:24;;;;;;;101.35;19.83;;;4.30;99.90;;;;;;5052476;28;20096;-78
2022/01/14 03:36:51;;;;;;;39.97;13.27;;;4.50;99.90;;;;;;5052158;28;20456;-78
2022/01/14 03:39:18;;;;;;;32.38;13.93;;;4.40;99.90;;;;;;5049692;28;20032;-78
2022/01/14 03:41:44;;;;;;;37.70;12.90;;;4.50;99.90;;;;;;5049386;28;20014;-78
2022/01/14 03:44:10;;;;;;;32.15;14.07;;;4.60;99.90;;;;;;5053704;28;20105;-77
2022/01/14 03:46:36;;;;;;;46.20;15.05;;;4.60;99.90;;;;;;5054392;28;20112;-77
2022/01/14 03:49:02;;;;;;;60.28;16.33;;;4.70;99.90;;;;;;5050205;28;20370;-77
2022/01/14 03:51:29;;;;;;;41.45;14.05;;;4.70;99.90;;;;;;5040146;28;20025;-78
2022/01/14 03:53:56;;;;;;;35.38;14.50;;;4.60;99.90;;;;;;5046520;28;20037;-78
2022/01/14 03:56:25;;;;;;;43.55;15.45;;;4.70;99.90;;;;;;5053022;28;20047;-77
2022/01/14 03:58:53;;;;;;;36.42;14.65;;;4.70;99.90;;;;;;5048193;28;20076;-77
2022/01/14 04:01:21;;;;;;;35.55;13.35;;;4.60;99.90;;;;;;5049752;28;20057;-78
2022/01/14 04:03:49;;;;;;;39.53;15.43;;;4.70;99.90;;;;;;5050533;28;20531;-77
2022/01/14 04:06:16;;;;;;;49.10;16.45;;;4.70;99.90;;;;;;5050495;28;20098;-78
2022/01/14 04:08:43;;;;;;;36.38;14.88;;;4.70;99.90;;;;;;5051603;28;20033;-77
2022/01/14 04:11:11;;;;;;;47.08;16.00;;;4.70;99.90;;;;;;5036318;28;20029;-77
2022/01/14 04:16:10;;;;;;;35.58;15.40;;;4.70;99.90;;;;;;5072938;28;20033;-78
2022/01/14 04:18:39;;;;;;;52.25;16.48;;;4.70;99.90;;;;;;5051339;28;20029;-78
2022/01/14 04:21:04;;;;;;;52.90;15.57;;;4.60;99.90;;;;;;5036312;28;20033;-78
2022/01/14 04:23:30;;;;;;;57.00;17.98;;;4.70;99.90;;;;;;5034491;28;20523;-77
2022/01/14 04:26:03;;;;;;;38.97;15.98;;;4.70;99.90;;;;;;5052264;28;20041;-77
2022/01/14 04:28:34;;;;;;;48.08;16.83;;;4.60;99.90;;;;;;5050900;28;20029;-78
2022/01/14 04:31:00;;;;;;;47.55;17.80;;;4.70;99.90;;;;;;5049465;28;20052;-77
2022/01/14 04:33:29;;;;;;;60.22;19.00;;;4.60;99.90;;;;;;5044067;28;22206;-77
2022/01/14 04:36:02;;;;;;;70.85;16.77;;;4.70;99.90;;;;;;5054054;28;20049;-77
2022/01/14 04:38:30;;;;;;;42.13;16.52;;;4.60;99.90;;;;;;5034305;28;20029;-77
2022/01/14 04:40:56;;;;;;;49.80;16.17;;;4.50;99.90;;;;;;5047950;28;20549;-77
2022/01/14 04:43:22;;;;;;;56.22;18.40;;;4.50;99.90;;;;;;5065381;28;20021;-77
2022/01/14 04:48:22;;;;;;;71.25;18.08;;;4.60;99.90;;;;;;5045796;28;20026;-77
2022/01/14 04:50:49;;;;;;;64.30;17.33;;;4.50;99.90;;;;;;5032460;28;20029;-77
2022/01/14 04:53:15;;;;;;;47.67;16.70;;;4.70;99.90;;;;;;5033932;28;20021;-77
2022/01/14 04:55:41;;;;;;;55.35;18.30;;;4.60;99.90;;;;;;5050628;28;20033;-77
2022/01/14 04:58:07;;;;;;;45.25;17.63;;;4.70;99.90;;;;;;5072419;28;20056;-77
2022/01/14 05:00:36;;;;;;;61.88;19.20;;;4.80;99.90;;;;;;5055023;28;20025;-77
2022/01/14 05:03:03;;;;;;;51.22;19.77;;;4.70;99.90;;;;;;5053702;28;20021;-77
2022/01/14 05:05:32;;;;;;;76.68;20.77;;;4.70;99.90;;;;;;5048761;28;20029;-77
2022/01/14 05:08:00;;;;;;;60.53;19.05;;;4.70;99.90;;;;;;5053032;28;20017;-77
2022/01/14 05:12:54;;;;;;;132.15;24.10;;;4.60;99.90;;;;;;5033665;28;20033;-77
2022/01/14 05:15:20;;;;;;;87.63;20.45;;;4.70;99.90;;;;;;5071782;28;20070;-77
2022/01/14 05:17:49;;;;;;;116.65;23.23;;;4.60;99.90;;;;;;5065932;28;20029;-77
2022/01/14 05:20:17;;;;;;;73.43;22.13;;;4.50;99.90;;;;;;5033977;28;20059;-77
2022/01/14 05:22:48;;;;;;;46.97;19.63;;;4.60;99.90;;;;;;5043212;28;20029;-77
2022/01/14 05:25:15;;;;;;;57.58;19.40;;;4.60;99.90;;;;;;5039877;28;20076;-77
2022/01/14 05:27:44;;;;;;;88.50;22.85;;;4.60;99.90;;;;;;5031868;28;20065;-77
2022/01/14 05:30:16;;;;;;;83.93;21.52;;;4.60;99.90;;;;;;5051382;28;20102;-77
2022/01/14 05:32:47;;;;;;;70.35;22.02;;;4.50;99.90;;;;;;5052903;28;20035;-78
2022/01/14 05:35:23;;;;;;;75.78;23.92;;;4.50;99.90;;;;;;5033524;28;20112;-78
2022/01/14 05:37:51;;;;;;;64.20;20.65;;;4.60;99.90;;;;;;5050664;28;20029;-78
2022/01/14 05:40:19;;;;;;;125.68;26.85;;;4.60;99.90;;;;;;5048426;28;20586;-78
2022/01/14 05:42:45;;;;;;;104.63;25.90;;;4.60;99.90;;;;;;5031662;28;20029;-77
2022/01/14 05:45:13;;;;;;;88.35;24.52;;;4.60;99.90;;;;;;5044002;28;20025;-77
2022/01/14 05:47:40;;;;;;;170.10;28.60;;;4.60;99.90;;;;;;5048193;28;20067;-77
2022/01/14 05:50:12;;;;;;;112.13;25.77;;;4.60;99.90;;;;;;5052197;28;20020;-77
2022/01/14 05:52:38;;;;;;;136.15;27.67;;;4.60;99.90;;;;;;5051804;28;20107;-78
2022/01/14 05:55:07;;;;;;;102.32;25.52;;;4.70;99.90;;;;;;5037336;28;20013;-78
2022/01/14 05:57:34;;;;;;;64.93;23.40;;;4.70;99.90;;;;;;5049437;28;20122;-78
2022/01/14 06:00:02;;;;;;;91.53;27.58;;;4.80;99.90;;;;;;5050694;28;20021;-77
2022/01/14 06:02:28;;;;;;;172.90;34.45;;;4.70;99.90;;;;;;5050415;28;20096;-77
2022/01/14 06:04:53;;;;;;;96.20;30.60;;;4.70;99.90;;;;;;5070039;28;20075;-78
2022/01/14 06:07:19;;;;;;;157.05;33.17;;;4.80;99.90;;;;;;5046659;28;20481;-77
2022/01/14 06:09:45;;;;;;;157.98;33.05;;;4.70;99.90;;;;;;5051879;28;20021;-78
2022/01/14 06:12:11;;;;;;;88.75;28.10;;;4.70;99.90;;;;;;5056197;28;20090;-77
2022/01/14 06:14:36;;;;;;;102.75;30.38;;;4.80;99.90;;;;;;5046244;28;20048;-78
2022/01/14 06:17:05;;;;;;;87.68;29.40;;;4.90;99.90;;;;;;5052075;28;20025;-78
2022/01/14 06:19:33;;;;;;;94.63;30.45;;;4.90;99.90;;;;;;5056753;28;20087;-77
2022/01/14 06:21:59;;;;;;;98.07;31.88;;;4.90;99.90;;;;;;5056736;28;20112;-78
2022/01/14 06:24:25;;;;;;;108.15;33.10;;;4.80;99.90;;;;;;5070033;28;20067;-77
2022/01/14 06:26:51;;;;;;;297.73;48.05;;;4.90;99.90;;;;;;5056272;28;20021;-77
2022/01/14 06:29:21;;;;;;;215.25;42.35;;;4.90;99.90;;;;;;5067766;28;20029;-78
2022/01/14 06:31:49;;;;;;;88.20;31.75;;;4.90;99.90;;;;;;5037092;28;20363;-78
2022/01/14 06:34:15;;;;;;;82.57;31.30;;;4.80;99.90;;;;;;5047195;28;20437;-78
2022/01/14 06:36:42;;;;;;;198.27;41.00;;;4.80;99.90;;;;;;5053792;28;20113;-78
2022/01/14 06:39:10;;;;;;;85.00;32.35;;;4.90;99.90;;;;;;5038322;28;20029;-77
2022/01/14 06:41:35;;;;;;;105.57;37.38;;;4.90;99.90;;;;;;5035364;28;20486;-78
2022/01/14 06:44:03;;;;;;;128.52;34.72;;;4.90;99.90;;;;;;5036404;28;20067;-78
2022/01/14 06:46:29;;;;;;;116.25;36.15;;;4.80;99.90;;;;;;5053867;28;20044;-78
2022/01/14 06:48:56;;;;;;;100.18;34.25;;;4.80;99.90;;;;;;5067597;28;20478;-77
2022/01/14 06:51:22;;;;;;;140.45;38.88;;;4.90;99.90;;;;;;5039326;28;20051;-78
2022/01/14 06:53:47;;;;;;;102.00;36.28;;;4.90;99.90;;;;;;5055813;28;20041;-78
2022/01/14 06:56:17;;;;;;;177.77;45.58;;;5.00;99.90;;;;;;5052891;28;20126;-77
2022/01/14 06:58:43;;;;;;;103.32;37.30;;;5.00;99.90;;;;;;5054727;28;20037;-78
2022/01/14 07:01:12;;;;;;;141.63;41.63;;;5.00;99.90;;;;;;5056102;28;20017;-77
2022/01/14 07:03:40;;;;;;;436.77;64.68;;;5.10;99.90;;;;;;5053948;28;20040;-78
2022/01/14 07:06:05;;;;;;;99.97;38.47;;;5.10;99.90;;;;;;5034572;28;20124;-78
2022/01/14 07:08:31;;;;;;;111.50;41.40;;;5.10;99.90;;;;;;5037272;28;20394;-79
2022/01/14 07:11:00;;;;;;;133.25;42.60;;;5.20;99.90;;;;;;5046343;28;20163;-78
2022/01/14 07:13:25;;;;;;;109.97;39.83;;;5.20;99.90;;;;;;5070729;28;20013;-78
2022/01/14 07:15:57;;;;;;;103.40;41.30;;;5.20;99.90;;;;;;5050591;28;20117;-77
2022/01/14 07:18:23;;;;;;;155.37;45.07;;;5.20;99.90;;;;;;5049635;28;20423;-78
2022/01/14 07:20:49;;;;;;;122.07;39.22;;;5.20;99.90;;;;;;5049795;28;20102;-78
2022/01/14 07:23:17;;;;;;;182.25;49.08;;;5.20;99.90;;;;;;5039474;28;20021;-78
2022/01/14 07:25:43;;;;;;;111.53;37.35;;;5.10;99.90;;;;;;5049948;28;20025;-78
2022/01/14 07:28:10;;;;;;;179.63;48.33;;;5.10;99.90;;;;;;5071946;28;20378;-78
2022/01/14 07:30:38;;;;;;;160.00;46.30;;;5.10;99.90;;;;;;5055898;28;20060;-78
2022/01/14 07:33:03;;;;;;;140.30;39.15;;;5.10;99.90;;;;;;5055496;28;20152;-78
2022/01/14 07:35:32;;;;;;;180.50;46.55;;;5.20;99.90;;;;;;5055474;28;20104;-78
2022/01/14 07:37:58;;;;;;;175.32;49.80;;;5.20;99.90;;;;;;5055252;28;20032;-78
2022/01/14 07:40:24;;;;;;;153.57;45.20;;;5.20;99.90;;;;;;5070827;28;20179;-79
2022/01/14 07:42:49;;;;;;;216.23;50.40;;;5.10;99.90;;;;;;5055194;28;20528;-78
2022/01/14 07:45:15;;;;;;;179.43;48.47;;;5.10;99.90;;;;;;5055286;28;20033;-78
2022/01/14 07:47:41;;;;;;;161.25;47.40;;;5.10;99.90;;;;;;5055290;28;20048;-78
2022/01/14 07:50:08;;;;;;;177.00;48.47;;;5.20;99.90;;;;;;5055280;28;20025;-78
2022/01/14 07:52:34;;;;;;;128.27;44.13;;;5.10;99.90;;;;;;5053383;28;20013;-78
2022/01/14 07:54:59;;;;;;;164.95;48.58;;;5.10;99.90;;;;;;5070606;28;20028;-78
2022/01/14 07:57:31;;;;;;;186.15;47.47;;;5.10;99.90;;;;;;5036881;28;20109;-78
2022/01/14 07:59:58;;;;;;;125.63;42.83;;;5.10;99.90;;;;;;5069011;28;20036;-78
2022/01/14 08:02:25;;;;;;;155.32;45.13;;;5.00;99.90;;;;;;5073764;28;20107;-78
2022/01/14 08:04:52;;;;;;;418.63;69.20;;;5.10;99.90;;;;;;5075031;28;20029;-78
2022/01/14 08:07:22;;;;;;;424.35;67.53;;;5.10;99.90;;;;;;5061466;28;20065;-78
2022/01/14 08:09:48;;;;;;;297.02;59.90;;;5.00;99.90;;;;;;5055188;28;20055;-78
2022/01/14 08:12:15;;;;;;;182.10;51.97;;;5.10;99.90;;;;;;5054780;28;20071;-79
2022/01/14 08:14:42;;;;;;;143.23;45.80;;;5.20;99.90;;;;;;5053413;28;20052;-79
2022/01/14 08:17:09;;;;;;;218.30;52.78;;;5.20;99.90;;;;;;5053468;28;20445;-78
2022/01/14 08:19:37;;;;;;;222.93;55.03;;;5.20;99.90;;;;;;5053451;28;20025;-78
2022/01/14 08:22:07;;;;;;;310.02;67.80;;;5.20;99.90;;;;;;5054511;28;20025;-78
2022/01/14 08:24:33;;;;;;;300.13;80.10;;;5.20;99.90;;;;;;5053927;28;20124;-78
2022/01/14 08:26:59;;;;;;;130.13;46.95;;;5.20;99.90;;;;;;5054673;28;20098;-78
2022/01/14 08:29:28;;;;;;;486.55;75.65;;;5.20;99.90;;;;;;5057602;28;20028;-78
2022/01/14 08:31:54;;;;;;;222.02;58.13;;;5.10;99.90;;;;;;5059144;28;20021;-78
2022/01/14 08:34:21;;;;;;;175.52;51.53;;;5.10;99.90;;;;;;5048746;28;20470;-78
2022/01/14 08:36:52;;;;;;;166.65;52.20;;;5.00;99.90;;;;;;5037580;28;20025;-78
2022/01/14 08:39:18;;;;;;;158.80;48.88;;;5.10;99.90;;;;;;5054187;28;20112;-78
2022/01/14 08:41:45;;;;;;;227.30;55.47;;;5.10;99.90;;;;;;5053178;28;20020;-78
2022/01/14 08:44:13;;;;;;;260.20;60.55;;;5.10;99.90;;;;;;5052915;28;20470;-78
2022/01/14 08:46:39;;;;;;;174.60;55.22;;;5.20;99.90;;;;;;5053624;28;20070;-78
2022/01/14 08:49:08;;;;;;;162.00;54.40;;;5.20;99.90;;;;;;5052832;28;20116;-78
2022/01/14 08:51:40;;;;;;;261.05;62.63;;;5.20;99.90;;;;;;5033733;28;20021;-78
2022/01/14 08:54:12;;;;;;;167.43;53.25;;;5.20;99.90;;;;;;5039463;28;20017;-78
2022/01/14 08:56:44;;;;;;;221.77;59.65;;;5.10;99.90;;;;;;5052336;28;20021;-78
2022/01/14 08:59:16;;;;;;;159.60;53.45;;;5.10;99.90;;;;;;5052658;28;20106;-78
2022/01/14 09:01:43;;;;;;;;;;;5.10;99.90;;;;;;5054209;28;20378;-76
2022/01/14 09:04:12;;;;;;;135.23;47.45;;;5.20;99.90;;;;;;5053782;28;20322;-78
2022/01/14 09:06:37;;;;;;;136.90;47.90;;;5.30;99.90;;;;;;5053075;28;20062;-78
2022/01/14 09:09:06;;;;;;;140.95;47.53;;;5.30;99.90;;;;;;5053554;28;20025;-78
2022/01/14 09:11:33;;;;;;;157.38;52.40;;;5.30;99.90;;;;;;5053636;28;20013;-78
2022/01/14 09:14:00;;;;;;;151.45;52.55;;;5.20;99.90;;;;;;5051864;28;20040;-78
2022/01/14 09:16:27;;;;;;;153.15;52.55;;;5.30;99.90;;;;;;5053113;28;20051;-78
2022/01/14 09:18:56;;;;;;;136.73;49.25;;;5.40;99.90;;;;;;5053403;28;20025;-78
2022/01/14 09:21:22;;;;;;;221.30;57.15;;;5.30;99.90;;;;;;5053441;28;20091;-77
2022/01/14 09:23:54;;;;;;;195.77;54.05;;;5.30;99.90;;;;;;5051791;28;20486;-77
2022/01/14 09:26:20;;;;;;;280.35;65.90;;;5.30;99.90;;;;;;5053430;28;20033;-77
2022/01/14 09:28:48;;;;;;;214.27;59.53;;;5.40;99.90;;;;;;5053350;28;20017;-78
2022/01/14 09:31:14;;;;;;;126.28;46.28;;;5.40;99.90;;;;;;5053540;28;20074;-77
2022/01/14 09:33:41;;;;;;;129.57;48.05;;;5.40;99.90;;;;;;5053386;28;20021;-77
2022/01/14 09:36:10;;;;;;;132.98;48.28;;;5.60;99.90;;;;;;5052787;28;20032;-78
2022/01/14 09:38:36;;;;;;;135.88;48.30;;;5.60;99.90;;;;;;5051354;28;20028;-78
2022/01/14 09:41:06;;;;;;;148.60;51.42;;;5.60;99.90;;;;;;5053742;28;20450;-78
2022/01/14 09:43:36;;;;;;;128.23;46.15;;;5.50;99.90;;;;;;5054980;28;20017;-78
2022/01/14 09:46:05;;;;;;;110.10;44.63;;;5.60;99.90;;;;;;5052864;28;20111;-78
2022/01/14 09:48:38;;;;;;;136.07;47.45;;;5.60;99.90;;;;;;5052863;28;20013;-78
2022/01/14 09:51:06;;;;;;;142.43;50.85;;;5.70;99.90;;;;;;5053155;28;20033;-78
2022/01/14 09:53:33;;;;;;;183.98;56.28;;;5.80;99.90;;;;;;5051530;28;20021;-78
2022/01/14 09:56:02;;;;;;;165.30;53.28;;;5.70;99.90;;;;;;5052958;28;20427;-78
2022/01/14 09:58:36;;;;;;;158.05;52.00;;;5.70;99.90;;;;;;5053329;28;20478;-78
2022/01/14 10:01:13;;;;;;;129.82;48.80;;;5.60;99.90;;;;;;5050434;28;20040;-78
2022/01/14 10:04:01;;;;;;;132.13;48.38;;;5.70;99.90;;;;;;5049080;28;20021;-78
2022/01/14 10:06:38;;;;;;;166.38;57.08;;;5.80;99.90;;;;;;5061368;28;20048;-78
2022/01/14 10:09:11;;;;;;;156.95;55.78;;;5.70;99.90;;;;;;5056070;28;20068;-78
2022/01/14 10:11:40;;;;;;;138.98;50.17;;;5.80;99.90;;;;;;5053094;28;20058;-78
2022/01/14 10:14:07;;;;;;;132.25;50.17;;;5.70;99.90;;;;;;5052887;28;20056;-78
2022/01/14 10:16:33;;;;;;;126.20;51.05;;;5.80;99.90;;;;;;5051581;28;20028;-78
2022/01/14 10:18:59;;;;;;;142.80;55.42;;;5.80;99.90;;;;;;5050837;28;20029;-78
2022/01/14 10:21:33;;;;;;;121.82;49.88;;;5.90;99.90;;;;;;5048493;28;20040;-78
2022/01/14 10:23:59;;;;;;;114.25;48.03;;;5.80;99.90;;;;;;5043027;28;20049;-78
2022/01/14 10:26:27;;;;;;;124.93;46.53;;;5.80;99.90;;;;;;5032248;28;20033;-78
2022/01/14 10:29:08;;;;;;;141.77;49.30;;;5.90;99.90;;;;;;5045300;28;20116;-78
2022/01/14 10:31:35;;;;;;;136.00;48.45;;;5.80;99.90;;;;;;5040371;28;20068;-75
2022/01/14 10:34:15;;;;;;;127.68;47.65;;;5.90;99.90;;;;;;5047897;28;20082;-77
2022/01/14 10:36:46;;;;;;;147.45;50.10;;;5.90;99.90;;;;;;5036016;28;20147;-78
2022/01/14 10:39:27;;;;;;;132.00;49.28;;;6.00;99.90;;;;;;5047212;28;20025;-78
2022/01/14 10:41:55;;;;;;;139.90;49.92;;;6.00;99.90;;;;;;5044131;28;20043;-77
2022/01/14 10:44:30;;;;;;;137.30;48.42;;;6.00;99.90;;;;;;5038168;28;20026;-77
2022/01/14 10:47:17;;;;;;;167.20;50.28;;;6.00;99.90;;;;;;5056099;28;20386;-77
2022/01/14 10:49:46;;;;;;;186.05;51.45;;;6.10;99.90;;;;;;5038386;28;20033;-78
2022/01/14 10:52:22;;;;;;;224.75;56.30;;;6.10;99.90;;;;;;5057551;28;20021;-77
2022/01/14 10:55:00;;;;;;;177.60;52.58;;;6.10;99.90;;;;;;5035826;28;20021;-77
2022/01/14 10:57:29;;;;;;;143.25;48.92;;;6.10;99.90;;;;;;5038812;28;20022;-77
2022/01/14 11:00:12;;;;;;;148.52;48.63;;;6.20;99.90;;;;;;5060955;28;20053;-77
2022/01/14 11:02:42;;;;;;;194.27;52.28;;;6.20;99.90;;;;;;5053064;28;20104;-78
2022/01/14 11:05:09;;;;;;;220.85;58.72;;;6.10;99.90;;;;;;5039375;28;20026;-77
2022/01/14 11:07:39;;;;;;;458.33;74.05;;;6.10;99.90;;;;;;5059811;28;20029;-77
2022/01/14 11:10:19;;;;;;;169.90;53.03;;;6.10;99.90;;;;;;5055260;28;20120;-77
2022/01/14 11:12:47;;;;;;;185.07;52.05;;;6.10;99.90;;;;;;5056383;28;20031;-78
2022/01/14 11:15:14;;;;;;;404.13;68.47;;;6.20;99.90;;;;;;5044572;28;20462;-78
2022/01/14 11:17:46;;;;;;;175.02;51.70;;;6.10;99.90;;;;;;5059785;28;20029;-78
2022/01/14 11:20:13;;;;;;;236.95;56.30;;;6.10;99.90;;;;;;5055045;28;20024;-79
2022/01/14 11:25:29;;;;;;;161.60;52.38;;;6.30;99.90;;;;;;5036380;28;20133;-78
2022/01/14 11:27:59;;;;;;;161.25;51.67;;;6.30;99.90;;;;;;5050892;28;20124;-78
2022/01/14 11:30:37;;;;;;;157.77;52.50;;;6.30;99.90;;;;;;5054086;28;20465;-78
2022/01/14 11:33:12;;;;;;;156.07;50.70;;;6.30;99.90;;;;;;5043016;28;20061;-78
2022/01/14 11:35:39;;;;;;;164.23;53.67;;;6.30;99.90;;;;;;5051321;28;20025;-79
2022/01/14 11:38:38;;;;;;;163.20;54.67;;;6.40;99.90;;;;;;5050726;28;20044;-78
2022/01/14 11:41:05;;;;;;;159.68;54.58;;;6.40;99.90;;;;;;5035629;28;20042;-78
2022/01/14 11:43:50;;;;;;;169.05;54.75;;;6.30;99.90;;;;;;5055273;28;20478;-77
2022/01/14 11:46:39;;;;;;;151.73;53.42;;;6.40;99.90;;;;;;5047164;28;20017;-77
2022/01/14 11:49:38;;;;;;;173.85;56.28;;;6.40;99.90;;;;;;5038786;28;20538;-77
2022/01/14 11:52:08;;;;;;;153.02;52.65;;;6.50;99.90;;;;;;5044284;28;20355;-77
2022/01/14 11:54:45;;;;;;;168.82;56.85;;;6.40;99.90;;;;;;5051189;28;20484;-77
2022/01/14 11:57:42;;;;;;;181.18;57.67;;;6.40;99.90;;;;;;5051549;28;20021;-78
2022/01/14 12:00:41;;;;;;;166.70;54.65;;;6.50;99.90;;;;;;5052299;28;20045;-77
2022/01/14 12:03:06;;;;;;;150.15;57.50;;;6.50;99.90;;;;;;5051316;28;20033;-78
2022/01/14 12:05:53;;;;;;;163.75;57.35;;;6.50;99.90;;;;;;5048289;28;20047;-78
2022/01/14 12:08:35;;;;;;;156.55;54.50;;;6.50;99.90;;;;;;5044766;28;20037;-77
2022/01/14 12:11:07;;;;;;;167.60;56.15;;;6.60;99.90;;;;;;5049216;28;20025;-78
2022/01/14 12:13:41;;;;;;;158.20;57.45;;;6.60;99.90;;;;;;5034811;28;20029;-78
2022/01/14 12:17:00;;;;;;;168.55;55.67;;;6.60;99.90;;;;;;5034970;28;20025;-78
2022/01/14 12:19:28;;;;;;;151.45;54.55;;;6.70;99.90;;;;;;5067532;28;20017;-78
2022/01/14 12:21:57;;;;;;;156.82;54.33;;;6.70;99.90;;;;;;5052742;28;20028;-78
2022/01/14 12:24:28;;;;;;;155.60;55.88;;;6.70;99.90;;;;;;5055928;28;20032;-78
2022/01/14 12:27:12;;;;;;;151.68;55.65;;;6.80;99.90;;;;;;5035350;28;20029;-78
2022/01/14 12:29:37;;;;;;;155.52;55.15;;;6.70;99.90;;;;;;5034317;28;20033;-77
2022/01/14 12:32:09;;;;;;;147.60;54.92;;;6.70;99.90;;;;;;5044031;28;20025;-77
2022/01/14 12:35:06;;;;;;;152.40;52.83;;;6.80;99.90;;;;;;5052595;28;20048;-79
2022/01/14 12:37:46;;;;;;;141.93;50.35;;;6.80;99.90;;;;;;5047481;28;20057;-78
2022/01/14 12:40:18;;;;;;;143.35;51.97;;;6.90;99.90;;;;;;5049157;28;20390;-78
2022/01/14 12:42:53;;;;;;;162.77;57.47;;;6.90;99.90;;;;;;5034111;28;20041;-78
2022/01/14 12:45:32;;;;;;;164.75;56.58;;;7.00;99.90;;;;;;5068811;28;20021;-79
2022/01/14 12:48:28;;;;;;;189.98;61.58;;;6.90;99.90;;;;;;5053036;28;20029;-78
2022/01/14 12:51:12;;;;;;;173.40;58.47;;;6.90;99.90;;;;;;5050732;28;20020;-78
2022/01/14 12:54:01;;;;;;;167.63;59.55;;;6.90;99.90;;;;;;5045376;28;20030;-78
2022/01/14 12:56:29;;;;;;;162.40;55.58;;;6.90;99.90;;;;;;5038008;28;20021;-76
2022/01/14 12:59:01;;;;;;;160.73;56.08;;;6.90;99.90;;;;;;5069319;28;20025;-79
2022/01/14 13:01:33;;;;;;;149.23;53.55;;;7.00;99.90;;;;;;5045445;28;20021;-78
2022/01/14 13:04:10;;;;;;;160.30;55.47;;;6.90;99.90;;;;;;5053751;28;20041;-78
2022/01/14 13:06:46;;;;;;;166.27;57.78;;;7.00;99.90;;;;;;5044105;28;20326;-78
2022/01/14 13:09:19;;;;;;;158.57;54.78;;;6.90;99.90;;;;;;5035431;28;20016;-78
2022/01/14 13:12:13;;;;;;;161.13;53.80;;;7.00;99.90;;;;;;5051968;28;20075;-78
2022/01/14 13:14:51;;;;;;;151.70;54.85;;;6.90;99.90;;;;;;5048719;28;20037;-78
2022/01/14 13:17:26;;;;;;;333.38;179.77;;;7.00;99.90;;;;;;5038794;28;20561;-78